sensor_id;sensor_type;location;lat;lon;timestamp;P1;durP1;ratioP1;P2;durP2;ratioP2
67028;SDS011;53934;52.142;11.738;2022-10-17T00:01:46;4.28;;;2.40;;
67028;SDS011;53934;52.142;11.738;2022-10-17T00:04:13;3.08;;;2.30;;
67028;SDS011;53934;52.142;11.738;2022-10-17T00:06:39;3.80;;;2.28;;
67028;SDS011;53934;52.142;11.738;2022-10-17T00:09:06;5.15;;;1.90;;
67028;SDS011;53934;52.142;11.738;2022-10-17T00:11:33;15.75;;;3.78;;
67028;SDS011;53934;52.142;11.738;2022-10-17T00:14:01;4.38;;;2.60;;
67028;SDS011;53934;52.142;11.738;2022-10-17T00:16:30;5.45;;;2.22;;
67028;SDS011;53934;52.142;11.738;2022-10-17T00:18:58;4.72;;;2.90;;
67028;SDS011;53934;52.142;11.738;2022-10-17T00:21:25;3.80;;;2.80;;
67028;SDS011;53934;52.142;11.738;2022-10-17T00:23:52;3.03;;;2.60;;
67028;SDS011;53934;52.142;11.738;2022-10-17T00:26:19;6.53;;;2.33;;
67028;SDS011;53934;52.142;11.738;2022-10-17T00:28:46;3.70;;;2.53;;
67028;SDS011;53934;52.142;11.738;2022-10-17T00:31:13;5.55;;;3.42;;
67028;SDS011;53934;52.142;11.738;2022-10-17T00:33:42;6.05;;;3.00;;
67028;SDS011;53934;52.142;11.738;2022-10-17T00:36:10;5.03;;;2.78;;
67028;SDS011;53934;52.142;11.738;2022-10-17T00:38:39;4.93;;;2.70;;
67028;SDS011;53934;52.142;11.738;2022-10-17T00:41:06;4.78;;;2.72;;
67028;SDS011;53934;52.142;11.738;2022-10-17T00:43:50;4.82;;;2.35;;
67028;SDS011;53934;52.142;11.738;2022-10-17T00:46:20;6.18;;;2.50;;
67028;SDS011;53934;52.142;11.738;2022-10-17T00:48:50;2.90;;;2.30;;
67028;SDS011;53934;52.142;11.738;2022-10-17T00:51:19;6.47;;;2.53;;
67028;SDS011;53934;52.142;11.738;2022-10-17T00:53:50;5.90;;;2.63;;
67028;SDS011;53934;52.142;11.738;2022-10-17T00:56:17;9.70;;;2.97;;
67028;SDS011;53934;52.142;11.738;2022-10-17T00:58:44;6.35;;;2.88;;
67028;SDS011;53934;52.142;11.738;2022-10-17T01:01:11;6.28;;;3.63;;
67028;SDS011;53934;52.142;11.738;2022-10-17T01:03:38;4.35;;;2.80;;
67028;SDS011;53934;52.142;11.738;2022-10-17T01:06:05;4.40;;;2.50;;
67028;SDS011;53934;52.142;11.738;2022-10-17T01:08:32;3.85;;;2.55;;
67028;SDS011;53934;52.142;11.738;2022-10-17T01:11:00;7.30;;;2.83;;
67028;SDS011;53934;52.142;11.738;2022-10-17T01:13:36;6.78;;;4.85;;
67028;SDS011;53934;52.142;11.738;2022-10-17T01:18:39;5.15;;;3.38;;
67028;SDS011;53934;52.142;11.738;2022-10-17T01:21:22;7.20;;;5.18;;
67028;SDS011;53934;52.142;11.738;2022-10-17T01:24:06;7.45;;;4.60;;
67028;SDS011;53934;52.142;11.738;2022-10-17T01:27:05;5.35;;;4.50;;
67028;SDS011;53934;52.142;11.738;2022-10-17T01:29:52;7.53;;;5.03;;
67028;SDS011;53934;52.142;11.738;2022-10-17T01:32:29;8.10;;;5.53;;
67028;SDS011;53934;52.142;11.738;2022-10-17T01:35:01;7.88;;;5.45;;
67028;SDS011;53934;52.142;11.738;2022-10-17T01:37:36;7.50;;;5.03;;
67028;SDS011;53934;52.142;11.738;2022-10-17T01:40:10;9.85;;;5.35;;
67028;SDS011;53934;52.142;11.738;2022-10-17T01:42:41;8.35;;;5.05;;
67028;SDS011;53934;52.142;11.738;2022-10-17T01:47:46;7.35;;;5.43;;
67028;SDS011;53934;52.142;11.738;2022-10-17T01:50:16;8.18;;;5.28;;
67028;SDS011;53934;52.142;11.738;2022-10-17T01:52:47;8.52;;;5.30;;
67028;SDS011;53934;52.142;11.738;2022-10-17T01:55:17;9.15;;;4.97;;
67028;SDS011;53934;52.142;11.738;2022-10-17T01:57:47;5.93;;;5.28;;
67028;SDS011;53934;52.142;11.738;2022-10-17T02:00:17;9.50;;;5.68;;
67028;SDS011;53934;52.142;11.738;2022-10-17T02:02:49;7.32;;;5.35;;
67028;SDS011;53934;52.142;11.738;2022-10-17T02:05:20;8.77;;;5.32;;
67028;SDS011;53934;52.142;11.738;2022-10-17T02:07:51;6.18;;;5.07;;
67028;SDS011;53934;52.142;11.738;2022-10-17T02:10:18;10.75;;;5.10;;
67028;SDS011;53934;52.142;11.738;2022-10-17T02:12:52;8.10;;;5.28;;
67028;SDS011;53934;52.142;11.738;2022-10-17T02:18:28;7.15;;;5.07;;
67028;SDS011;53934;52.142;11.738;2022-10-17T02:21:10;7.20;;;5.07;;
67028;SDS011;53934;52.142;11.738;2022-10-17T02:23:44;6.18;;;4.82;;
67028;SDS011;53934;52.142;11.738;2022-10-17T02:26:18;7.40;;;4.93;;
67028;SDS011;53934;52.142;11.738;2022-10-17T02:28:50;10.55;;;4.45;;
67028;SDS011;53934;52.142;11.738;2022-10-17T02:31:28;5.32;;;4.40;;
67028;SDS011;53934;52.142;11.738;2022-10-17T02:34:00;6.90;;;4.68;;
67028;SDS011;53934;52.142;11.738;2022-10-17T02:36:31;6.67;;;4.73;;
67028;SDS011;53934;52.142;11.738;2022-10-17T02:39:04;7.78;;;5.13;;
67028;SDS011;53934;52.142;11.738;2022-10-17T02:41:33;7.63;;;4.78;;
67028;SDS011;53934;52.142;11.738;2022-10-17T02:44:01;7.28;;;5.10;;
67028;SDS011;53934;52.142;11.738;2022-10-17T02:46:30;8.73;;;5.43;;
67028;SDS011;53934;52.142;11.738;2022-10-17T02:49:01;10.05;;;5.38;;
67028;SDS011;53934;52.142;11.738;2022-10-17T02:51:32;6.97;;;4.65;;
67028;SDS011;53934;52.142;11.738;2022-10-17T02:54:08;8.05;;;5.03;;
67028;SDS011;53934;52.142;11.738;2022-10-17T02:56:40;10.70;;;5.07;;
67028;SDS011;53934;52.142;11.738;2022-10-17T02:59:11;7.70;;;5.57;;
67028;SDS011;53934;52.142;11.738;2022-10-17T03:01:42;7.88;;;5.28;;
67028;SDS011;53934;52.142;11.738;2022-10-17T03:04:11;8.57;;;5.15;;
67028;SDS011;53934;52.142;11.738;2022-10-17T03:06:39;8.90;;;4.90;;
67028;SDS011;53934;52.142;11.738;2022-10-17T03:09:06;6.93;;;5.20;;
67028;SDS011;53934;52.142;11.738;2022-10-17T03:11:33;7.43;;;5.15;;
67028;SDS011;53934;52.142;11.738;2022-10-17T03:14:00;7.30;;;4.95;;
67028;SDS011;53934;52.142;11.738;2022-10-17T03:16:26;8.15;;;5.55;;
67028;SDS011;53934;52.142;11.738;2022-10-17T03:18:53;10.73;;;6.35;;
67028;SDS011;53934;52.142;11.738;2022-10-17T03:21:20;14.65;;;6.72;;
67028;SDS011;53934;52.142;11.738;2022-10-17T03:23:47;9.18;;;6.57;;
67028;SDS011;53934;52.142;11.738;2022-10-17T03:26:13;10.02;;;6.20;;
67028;SDS011;53934;52.142;11.738;2022-10-17T03:28:40;12.70;;;7.07;;
67028;SDS011;53934;52.142;11.738;2022-10-17T03:31:07;10.30;;;7.10;;
67028;SDS011;53934;52.142;11.738;2022-10-17T03:33:34;9.82;;;7.07;;
67028;SDS011;53934;52.142;11.738;2022-10-17T03:36:03;10.57;;;6.95;;
67028;SDS011;53934;52.142;11.738;2022-10-17T03:38:32;8.40;;;5.82;;
67028;SDS011;53934;52.142;11.738;2022-10-17T03:40:58;9.18;;;5.93;;
67028;SDS011;53934;52.142;11.738;2022-10-17T03:43:25;8.80;;;6.00;;
67028;SDS011;53934;52.142;11.738;2022-10-17T03:45:51;9.40;;;5.80;;
67028;SDS011;53934;52.142;11.738;2022-10-17T03:48:18;9.32;;;6.35;;
67028;SDS011;53934;52.142;11.738;2022-10-17T03:50:44;9.15;;;6.20;;
67028;SDS011;53934;52.142;11.738;2022-10-17T03:53:11;10.23;;;6.88;;
67028;SDS011;53934;52.142;11.738;2022-10-17T03:55:38;8.85;;;6.05;;
67028;SDS011;53934;52.142;11.738;2022-10-17T03:58:05;9.70;;;6.15;;
67028;SDS011;53934;52.142;11.738;2022-10-17T04:00:31;11.20;;;6.53;;
67028;SDS011;53934;52.142;11.738;2022-10-17T04:02:58;14.73;;;7.32;;
67028;SDS011;53934;52.142;11.738;2022-10-17T04:05:24;11.73;;;6.68;;
67028;SDS011;53934;52.142;11.738;2022-10-17T04:07:51;13.25;;;6.93;;
67028;SDS011;53934;52.142;11.738;2022-10-17T04:10:17;9.93;;;7.07;;
67028;SDS011;53934;52.142;11.738;2022-10-17T04:12:45;8.27;;;6.10;;
67028;SDS011;53934;52.142;11.738;2022-10-17T04:15:11;12.05;;;7.18;;
67028;SDS011;53934;52.142;11.738;2022-10-17T04:17:38;9.18;;;6.18;;
67028;SDS011;53934;52.142;11.738;2022-10-17T04:20:05;11.38;;;6.90;;
67028;SDS011;53934;52.142;11.738;2022-10-17T04:22:32;9.93;;;6.65;;
67028;SDS011;53934;52.142;11.738;2022-10-17T04:24:59;10.40;;;6.55;;
67028;SDS011;53934;52.142;11.738;2022-10-17T04:27:25;10.52;;;6.85;;
67028;SDS011;53934;52.142;11.738;2022-10-17T04:29:53;11.00;;;7.47;;
67028;SDS011;53934;52.142;11.738;2022-10-17T04:32:20;9.07;;;6.68;;
67028;SDS011;53934;52.142;11.738;2022-10-17T04:34:47;9.80;;;6.35;;
67028;SDS011;53934;52.142;11.738;2022-10-17T04:37:14;12.18;;;6.85;;
67028;SDS011;53934;52.142;11.738;2022-10-17T04:39:40;12.05;;;6.50;;
67028;SDS011;53934;52.142;11.738;2022-10-17T04:42:07;9.55;;;6.15;;
67028;SDS011;53934;52.142;11.738;2022-10-17T04:44:33;10.73;;;6.00;;
67028;SDS011;53934;52.142;11.738;2022-10-17T04:47:01;8.65;;;6.63;;
67028;SDS011;53934;52.142;11.738;2022-10-17T04:49:28;10.82;;;6.75;;
67028;SDS011;53934;52.142;11.738;2022-10-17T04:51:54;14.27;;;6.90;;
67028;SDS011;53934;52.142;11.738;2022-10-17T04:54:20;10.35;;;6.78;;
67028;SDS011;53934;52.142;11.738;2022-10-17T04:56:47;9.27;;;6.57;;
67028;SDS011;53934;52.142;11.738;2022-10-17T04:59:13;13.02;;;7.03;;
67028;SDS011;53934;52.142;11.738;2022-10-17T05:01:40;9.07;;;6.68;;
67028;SDS011;53934;52.142;11.738;2022-10-17T05:04:08;14.88;;;7.00;;
67028;SDS011;53934;52.142;11.738;2022-10-17T05:06:35;10.57;;;6.80;;
67028;SDS011;53934;52.142;11.738;2022-10-17T05:09:02;11.13;;;6.97;;
67028;SDS011;53934;52.142;11.738;2022-10-17T05:11:29;14.13;;;7.22;;
67028;SDS011;53934;52.142;11.738;2022-10-17T05:13:56;10.70;;;6.00;;
67028;SDS011;53934;52.142;11.738;2022-10-17T05:16:24;13.35;;;6.75;;
67028;SDS011;53934;52.142;11.738;2022-10-17T05:18:52;11.40;;;6.65;;
67028;SDS011;53934;52.142;11.738;2022-10-17T05:21:21;9.75;;;6.45;;
67028;SDS011;53934;52.142;11.738;2022-10-17T05:23:49;8.48;;;6.38;;
67028;SDS011;53934;52.142;11.738;2022-10-17T05:26:16;13.50;;;6.50;;
67028;SDS011;53934;52.142;11.738;2022-10-17T05:28:42;9.02;;;6.28;;
67028;SDS011;53934;52.142;11.738;2022-10-17T05:31:09;7.65;;;6.60;;
67028;SDS011;53934;52.142;11.738;2022-10-17T05:33:36;11.65;;;6.70;;
67028;SDS011;53934;52.142;11.738;2022-10-17T05:36:04;9.18;;;6.55;;
67028;SDS011;53934;52.142;11.738;2022-10-17T05:38:33;12.93;;;6.40;;
67028;SDS011;53934;52.142;11.738;2022-10-17T05:41:01;11.23;;;6.47;;
67028;SDS011;53934;52.142;11.738;2022-10-17T05:43:29;9.48;;;6.15;;
67028;SDS011;53934;52.142;11.738;2022-10-17T05:45:56;7.32;;;6.10;;
67028;SDS011;53934;52.142;11.738;2022-10-17T05:48:22;15.85;;;8.25;;
67028;SDS011;53934;52.142;11.738;2022-10-17T05:50:49;13.45;;;6.50;;
67028;SDS011;53934;52.142;11.738;2022-10-17T05:53:23;9.38;;;6.00;;
67028;SDS011;53934;52.142;11.738;2022-10-17T05:55:55;9.45;;;6.10;;
67028;SDS011;53934;52.142;11.738;2022-10-17T05:58:22;13.70;;;6.25;;
67028;SDS011;53934;52.142;11.738;2022-10-17T06:00:49;11.20;;;6.07;;
67028;SDS011;53934;52.142;11.738;2022-10-17T06:03:15;8.50;;;6.15;;
67028;SDS011;53934;52.142;11.738;2022-10-17T06:05:42;8.23;;;6.15;;
67028;SDS011;53934;52.142;11.738;2022-10-17T06:08:08;11.43;;;5.82;;
67028;SDS011;53934;52.142;11.738;2022-10-17T06:10:35;9.20;;;5.85;;
67028;SDS011;53934;52.142;11.738;2022-10-17T06:13:03;7.00;;;5.30;;
67028;SDS011;53934;52.142;11.738;2022-10-17T06:15:31;9.40;;;6.10;;
67028;SDS011;53934;52.142;11.738;2022-10-17T06:17:58;9.60;;;5.85;;
67028;SDS011;53934;52.142;11.738;2022-10-17T06:20:24;16.02;;;6.05;;
67028;SDS011;53934;52.142;11.738;2022-10-17T06:22:51;9.80;;;5.45;;
67028;SDS011;53934;52.142;11.738;2022-10-17T06:25:18;6.20;;;5.28;;
67028;SDS011;53934;52.142;11.738;2022-10-17T06:27:44;9.48;;;5.13;;
67028;SDS011;53934;52.142;11.738;2022-10-17T06:30:12;11.68;;;5.88;;
67028;SDS011;53934;52.142;11.738;2022-10-17T06:32:38;7.53;;;4.97;;
67028;SDS011;53934;52.142;11.738;2022-10-17T06:35:05;8.48;;;4.47;;
67028;SDS011;53934;52.142;11.738;2022-10-17T06:37:32;11.10;;;4.57;;
67028;SDS011;53934;52.142;11.738;2022-10-17T06:40:00;7.20;;;4.45;;
67028;SDS011;53934;52.142;11.738;2022-10-17T06:42:27;7.43;;;4.20;;
67028;SDS011;53934;52.142;11.738;2022-10-17T06:44:53;8.80;;;4.50;;
67028;SDS011;53934;52.142;11.738;2022-10-17T06:47:21;8.75;;;4.15;;
67028;SDS011;53934;52.142;11.738;2022-10-17T06:49:47;11.73;;;5.82;;
67028;SDS011;53934;52.142;11.738;2022-10-17T06:52:14;9.98;;;5.10;;
67028;SDS011;53934;52.142;11.738;2022-10-17T06:54:41;5.40;;;4.00;;
67028;SDS011;53934;52.142;11.738;2022-10-17T06:57:07;9.38;;;4.25;;
67028;SDS011;53934;52.142;11.738;2022-10-17T06:59:34;9.25;;;4.20;;
67028;SDS011;53934;52.142;11.738;2022-10-17T07:02:00;5.13;;;3.50;;
67028;SDS011;53934;52.142;11.738;2022-10-17T07:04:29;8.23;;;4.05;;
67028;SDS011;53934;52.142;11.738;2022-10-17T07:06:55;8.85;;;4.00;;
67028;SDS011;53934;52.142;11.738;2022-10-17T07:09:22;5.93;;;3.63;;
67028;SDS011;53934;52.142;11.738;2022-10-17T07:11:49;5.75;;;3.88;;
67028;SDS011;53934;52.142;11.738;2022-10-17T07:14:15;5.90;;;3.65;;
67028;SDS011;53934;52.142;11.738;2022-10-17T07:16:42;6.03;;;4.05;;
67028;SDS011;53934;52.142;11.738;2022-10-17T07:19:09;8.65;;;3.65;;
67028;SDS011;53934;52.142;11.738;2022-10-17T07:21:37;4.45;;;3.20;;
67028;SDS011;53934;52.142;11.738;2022-10-17T07:24:04;9.38;;;3.78;;
67028;SDS011;53934;52.142;11.738;2022-10-17T07:26:31;5.50;;;3.25;;
67028;SDS011;53934;52.142;11.738;2022-10-17T07:28:57;8.77;;;3.65;;
67028;SDS011;53934;52.142;11.738;2022-10-17T07:31:24;6.45;;;3.00;;
67028;SDS011;53934;52.142;11.738;2022-10-17T07:33:50;7.25;;;3.20;;
67028;SDS011;53934;52.142;11.738;2022-10-17T07:36:17;8.32;;;3.15;;
67028;SDS011;53934;52.142;11.738;2022-10-17T07:38:45;12.52;;;3.22;;
67028;SDS011;53934;52.142;11.738;2022-10-17T07:41:11;7.65;;;3.00;;
67028;SDS011;53934;52.142;11.738;2022-10-17T07:43:38;5.28;;;3.20;;
67028;SDS011;53934;52.142;11.738;2022-10-17T07:46:06;6.03;;;3.10;;
67028;SDS011;53934;52.142;11.738;2022-10-17T07:48:35;5.32;;;3.00;;
67028;SDS011;53934;52.142;11.738;2022-10-17T07:51:02;8.93;;;2.83;;
67028;SDS011;53934;52.142;11.738;2022-10-17T07:53:29;5.57;;;2.88;;
67028;SDS011;53934;52.142;11.738;2022-10-17T07:55:58;6.10;;;2.80;;
67028;SDS011;53934;52.142;11.738;2022-10-17T07:58:24;7.28;;;2.90;;
67028;SDS011;53934;52.142;11.738;2022-10-17T08:00:52;5.10;;;2.90;;
67028;SDS011;53934;52.142;11.738;2022-10-17T08:03:19;5.15;;;2.90;;
67028;SDS011;53934;52.142;11.738;2022-10-17T08:05:45;4.22;;;2.90;;
67028;SDS011;53934;52.142;11.738;2022-10-17T08:08:12;4.55;;;2.63;;
67028;SDS011;53934;52.142;11.738;2022-10-17T08:10:38;3.13;;;2.50;;
67028;SDS011;53934;52.142;11.738;2022-10-17T08:13:06;3.13;;;2.60;;
67028;SDS011;53934;52.142;11.738;2022-10-17T08:15:33;5.82;;;2.90;;
67028;SDS011;53934;52.142;11.738;2022-10-17T08:18:02;4.93;;;2.90;;
67028;SDS011;53934;52.142;11.738;2022-10-17T08:20:28;5.90;;;2.72;;
67028;SDS011;53934;52.142;11.738;2022-10-17T08:22:55;8.25;;;2.60;;
67028;SDS011;53934;52.142;11.738;2022-10-17T08:25:22;6.07;;;2.67;;
67028;SDS011;53934;52.142;11.738;2022-10-17T08:27:49;5.85;;;2.70;;
67028;SDS011;53934;52.142;11.738;2022-10-17T08:30:17;8.10;;;2.80;;
67028;SDS011;53934;52.142;11.738;2022-10-17T08:32:43;5.43;;;3.10;;
67028;SDS011;53934;52.142;11.738;2022-10-17T08:35:10;8.60;;;3.08;;
67028;SDS011;53934;52.142;11.738;2022-10-17T08:37:38;6.22;;;2.75;;
67028;SDS011;53934;52.142;11.738;2022-10-17T08:40:05;6.75;;;2.50;;
67028;SDS011;53934;52.142;11.738;2022-10-17T08:42:41;5.20;;;2.67;;
67028;SDS011;53934;52.142;11.738;2022-10-17T08:45:23;6.63;;;2.80;;
67028;SDS011;53934;52.142;11.738;2022-10-17T08:47:56;5.43;;;2.97;;
67028;SDS011;53934;52.142;11.738;2022-10-17T08:50:26;6.40;;;2.75;;
67028;SDS011;53934;52.142;11.738;2022-10-17T08:52:59;7.70;;;2.58;;
67028;SDS011;53934;52.142;11.738;2022-10-17T08:55:31;6.38;;;2.42;;
67028;SDS011;53934;52.142;11.738;2022-10-17T08:58:01;5.13;;;2.63;;
67028;SDS011;53934;52.142;11.738;2022-10-17T09:00:29;3.60;;;2.22;;
67028;SDS011;53934;52.142;11.738;2022-10-17T09:03:02;5.07;;;2.50;;
67028;SDS011;53934;52.142;11.738;2022-10-17T09:05:40;6.95;;;2.42;;
67028;SDS011;53934;52.142;11.738;2022-10-17T09:08:22;10.65;;;2.97;;
67028;SDS011;53934;52.142;11.738;2022-10-17T09:10:59;9.00;;;2.40;;
67028;SDS011;53934;52.142;11.738;2022-10-17T09:13:40;5.68;;;2.35;;
67028;SDS011;53934;52.142;11.738;2022-10-17T09:16:24;4.25;;;2.40;;
67028;SDS011;53934;52.142;11.738;2022-10-17T09:19:02;5.57;;;2.10;;
67028;SDS011;53934;52.142;11.738;2022-10-17T09:21:38;7.65;;;2.47;;
67028;SDS011;53934;52.142;11.738;2022-10-17T09:24:11;5.55;;;2.40;;
67028;SDS011;53934;52.142;11.738;2022-10-17T09:26:43;5.13;;;2.20;;
67028;SDS011;53934;52.142;11.738;2022-10-17T09:29:13;4.60;;;2.30;;
67028;SDS011;53934;52.142;11.738;2022-10-17T09:31:47;4.68;;;2.33;;
67028;SDS011;53934;52.142;11.738;2022-10-17T09:34:18;8.90;;;2.40;;
67028;SDS011;53934;52.142;11.738;2022-10-17T09:36:45;6.65;;;2.03;;
67028;SDS011;53934;52.142;11.738;2022-10-17T09:39:12;5.07;;;2.30;;
67028;SDS011;53934;52.142;11.738;2022-10-17T09:41:42;7.75;;;2.63;;
67028;SDS011;53934;52.142;11.738;2022-10-17T09:44:14;7.70;;;2.10;;
67028;SDS011;53934;52.142;11.738;2022-10-17T09:46:42;8.07;;;2.20;;
67028;SDS011;53934;52.142;11.738;2022-10-17T09:49:30;6.15;;;2.22;;
67028;SDS011;53934;52.142;11.738;2022-10-17T09:51:58;5.60;;;2.17;;
67028;SDS011;53934;52.142;11.738;2022-10-17T09:54:27;4.03;;;2.00;;
67028;SDS011;53934;52.142;11.738;2022-10-17T09:56:57;5.73;;;2.00;;
67028;SDS011;53934;52.142;11.738;2022-10-17T09:59:29;5.97;;;2.33;;
67028;SDS011;53934;52.142;11.738;2022-10-17T10:02:07;5.90;;;2.15;;
67028;SDS011;53934;52.142;11.738;2022-10-17T10:04:50;2.92;;;2.10;;
67028;SDS011;53934;52.142;11.738;2022-10-17T10:07:21;4.85;;;2.00;;
67028;SDS011;53934;52.142;11.738;2022-10-17T10:09:48;4.35;;;2.10;;
67028;SDS011;53934;52.142;11.738;2022-10-17T10:12:17;4.72;;;1.80;;
67028;SDS011;53934;52.142;11.738;2022-10-17T10:14:45;6.90;;;2.17;;
67028;SDS011;53934;52.142;11.738;2022-10-17T10:17:28;4.35;;;2.00;;
67028;SDS011;53934;52.142;11.738;2022-10-17T10:20:03;4.07;;;2.30;;
67028;SDS011;53934;52.142;11.738;2022-10-17T10:23:03;6.38;;;2.30;;
67028;SDS011;53934;52.142;11.738;2022-10-17T10:25:31;5.78;;;2.33;;
67028;SDS011;53934;52.142;11.738;2022-10-17T10:27:58;8.18;;;1.85;;
67028;SDS011;53934;52.142;11.738;2022-10-17T10:30:27;7.03;;;1.90;;
67028;SDS011;53934;52.142;11.738;2022-10-17T10:32:57;5.28;;;2.00;;
67028;SDS011;53934;52.142;11.738;2022-10-17T10:35:27;9.68;;;2.40;;
67028;SDS011;53934;52.142;11.738;2022-10-17T10:37:58;4.82;;;2.63;;
67028;SDS011;53934;52.142;11.738;2022-10-17T10:40:29;6.32;;;2.03;;
67028;SDS011;53934;52.142;11.738;2022-10-17T10:42:57;6.38;;;2.15;;
67028;SDS011;53934;52.142;11.738;2022-10-17T10:45:26;4.47;;;1.88;;
67028;SDS011;53934;52.142;11.738;2022-10-17T10:47:54;8.80;;;2.30;;
67028;SDS011;53934;52.142;11.738;2022-10-17T10:50:25;6.43;;;2.00;;
67028;SDS011;53934;52.142;11.738;2022-10-17T10:53:01;7.25;;;2.33;;
67028;SDS011;53934;52.142;11.738;2022-10-17T10:55:39;4.50;;;1.73;;
67028;SDS011;53934;52.142;11.738;2022-10-17T10:58:14;5.73;;;2.03;;
67028;SDS011;53934;52.142;11.738;2022-10-17T11:00:59;4.97;;;1.90;;
67028;SDS011;53934;52.142;11.738;2022-10-17T11:03:32;3.70;;;2.20;;
67028;SDS011;53934;52.142;11.738;2022-10-17T11:06:03;6.70;;;2.20;;
67028;SDS011;53934;52.142;11.738;2022-10-17T11:08:37;7.05;;;2.30;;
67028;SDS011;53934;52.142;11.738;2022-10-17T11:11:10;7.85;;;2.42;;
67028;SDS011;53934;52.142;11.738;2022-10-17T11:13:44;5.07;;;2.20;;
67028;SDS011;53934;52.142;11.738;2022-10-17T11:16:18;10.80;;;2.28;;
67028;SDS011;53934;52.142;11.738;2022-10-17T11:18:58;4.55;;;2.40;;
67028;SDS011;53934;52.142;11.738;2022-10-17T11:21:36;6.35;;;2.47;;
67028;SDS011;53934;52.142;11.738;2022-10-17T11:24:09;3.38;;;2.13;;
67028;SDS011;53934;52.142;11.738;2022-10-17T11:26:45;4.97;;;2.45;;
67028;SDS011;53934;52.142;11.738;2022-10-17T11:29:19;6.32;;;2.50;;
67028;SDS011;53934;52.142;11.738;2022-10-17T11:31:49;5.60;;;2.30;;
67028;SDS011;53934;52.142;11.738;2022-10-17T11:34:20;6.03;;;2.10;;
67028;SDS011;53934;52.142;11.738;2022-10-17T11:36:51;4.97;;;2.08;;
67028;SDS011;53934;52.142;11.738;2022-10-17T11:39:24;5.97;;;2.00;;
67028;SDS011;53934;52.142;11.738;2022-10-17T11:41:57;7.80;;;2.20;;
67028;SDS011;53934;52.142;11.738;2022-10-17T11:44:28;6.10;;;2.20;;
67028;SDS011;53934;52.142;11.738;2022-10-17T11:47:00;5.72;;;2.20;;
67028;SDS011;53934;52.142;11.738;2022-10-17T11:49:34;5.28;;;2.08;;
67028;SDS011;53934;52.142;11.738;2022-10-17T11:52:08;6.13;;;1.95;;
67028;SDS011;53934;52.142;11.738;2022-10-17T11:54:44;3.90;;;2.00;;
67028;SDS011;53934;52.142;11.738;2022-10-17T11:57:20;15.07;;;2.60;;
67028;SDS011;53934;52.142;11.738;2022-10-17T12:00:05;7.80;;;2.28;;
67028;SDS011;53934;52.142;11.738;2022-10-17T12:02:44;8.10;;;2.15;;
67028;SDS011;53934;52.142;11.738;2022-10-17T12:05:20;3.88;;;2.22;;
67028;SDS011;53934;52.142;11.738;2022-10-17T12:07:53;6.10;;;2.17;;
67028;SDS011;53934;52.142;11.738;2022-10-17T12:10:32;7.22;;;2.63;;
67028;SDS011;53934;52.142;11.738;2022-10-17T12:22:04;10.68;;;2.28;;
67028;SDS011;53934;52.142;11.738;2022-10-17T12:24:42;10.68;;;2.17;;
67028;SDS011;53934;52.142;11.738;2022-10-17T12:30:19;4.53;;;1.92;;
67028;SDS011;53934;52.142;11.738;2022-10-17T12:32:54;5.90;;;2.55;;
67028;SDS011;53934;52.142;11.738;2022-10-17T12:35:39;7.05;;;2.30;;
67028;SDS011;53934;52.142;11.738;2022-10-17T12:43:32;7.13;;;2.40;;
67028;SDS011;53934;52.142;11.738;2022-10-17T12:46:09;4.93;;;2.40;;
67028;SDS011;53934;52.142;11.738;2022-10-17T12:53:57;11.52;;;2.35;;
67028;SDS011;53934;52.142;11.738;2022-10-17T12:56:33;8.15;;;2.38;;
67028;SDS011;53934;52.142;11.738;2022-10-17T12:59:05;4.40;;;2.30;;
67028;SDS011;53934;52.142;11.738;2022-10-17T13:01:35;9.93;;;2.50;;
67028;SDS011;53934;52.142;11.738;2022-10-17T13:04:03;9.98;;;2.70;;
67028;SDS011;53934;52.142;11.738;2022-10-17T13:06:34;9.43;;;2.70;;
67028;SDS011;53934;52.142;11.738;2022-10-17T13:09:07;7.93;;;2.00;;
67028;SDS011;53934;52.142;11.738;2022-10-17T13:11:43;7.25;;;2.35;;
67028;SDS011;53934;52.142;11.738;2022-10-17T13:14:10;9.65;;;2.30;;
67028;SDS011;53934;52.142;11.738;2022-10-17T13:16:39;8.57;;;2.20;;
67028;SDS011;53934;52.142;11.738;2022-10-17T13:19:16;5.45;;;2.40;;
67028;SDS011;53934;52.142;11.738;2022-10-17T13:21:48;6.78;;;2.40;;
67028;SDS011;53934;52.142;11.738;2022-10-17T13:24:20;6.38;;;1.85;;
67028;SDS011;53934;52.142;11.738;2022-10-17T13:26:48;7.25;;;2.40;;
67028;SDS011;53934;52.142;11.738;2022-10-17T13:29:15;5.63;;;1.90;;
67028;SDS011;53934;52.142;11.738;2022-10-17T13:31:43;8.02;;;2.35;;
67028;SDS011;53934;52.142;11.738;2022-10-17T13:34:14;7.35;;;2.05;;
67028;SDS011;53934;52.142;11.738;2022-10-17T13:36:42;11.18;;;3.22;;
67028;SDS011;53934;52.142;11.738;2022-10-17T13:39:12;5.57;;;2.00;;
67028;SDS011;53934;52.142;11.738;2022-10-17T13:41:42;6.65;;;1.80;;
67028;SDS011;53934;52.142;11.738;2022-10-17T13:44:10;5.50;;;1.83;;
67028;SDS011;53934;52.142;11.738;2022-10-17T13:46:38;6.95;;;2.20;;
67028;SDS011;53934;52.142;11.738;2022-10-17T13:49:09;5.60;;;2.00;;
67028;SDS011;53934;52.142;11.738;2022-10-17T13:51:41;8.57;;;1.92;;
67028;SDS011;53934;52.142;11.738;2022-10-17T13:54:26;4.10;;;1.95;;
67028;SDS011;53934;52.142;11.738;2022-10-17T13:56:59;6.90;;;2.08;;
67028;SDS011;53934;52.142;11.738;2022-10-17T13:59:27;4.30;;;2.00;;
67028;SDS011;53934;52.142;11.738;2022-10-17T14:01:57;10.13;;;2.13;;
67028;SDS011;53934;52.142;11.738;2022-10-17T14:04:25;5.97;;;1.65;;
67028;SDS011;53934;52.142;11.738;2022-10-17T14:06:52;4.25;;;1.98;;
67028;SDS011;53934;52.142;11.738;2022-10-17T14:09:20;7.15;;;2.15;;
67028;SDS011;53934;52.142;11.738;2022-10-17T14:11:55;11.10;;;2.13;;
67028;SDS011;53934;52.142;11.738;2022-10-17T14:14:26;7.50;;;2.65;;
67028;SDS011;53934;52.142;11.738;2022-10-17T14:16:53;8.73;;;2.00;;
67028;SDS011;53934;52.142;11.738;2022-10-17T14:19:22;8.15;;;1.88;;
67028;SDS011;53934;52.142;11.738;2022-10-17T14:21:52;7.43;;;1.92;;
67028;SDS011;53934;52.142;11.738;2022-10-17T14:24:27;8.50;;;2.10;;
67028;SDS011;53934;52.142;11.738;2022-10-17T14:26:56;14.00;;;1.88;;
67028;SDS011;53934;52.142;11.738;2022-10-17T14:29:24;5.25;;;1.70;;
67028;SDS011;53934;52.142;11.738;2022-10-17T14:32:01;12.30;;;1.77;;
67028;SDS011;53934;52.142;11.738;2022-10-17T14:34:30;6.38;;;1.92;;
67028;SDS011;53934;52.142;11.738;2022-10-17T14:36:59;10.95;;;2.35;;
67028;SDS011;53934;52.142;11.738;2022-10-17T14:39:27;7.47;;;1.85;;
67028;SDS011;53934;52.142;11.738;2022-10-17T14:41:54;5.72;;;1.92;;
67028;SDS011;53934;52.142;11.738;2022-10-17T14:44:26;8.95;;;1.90;;
67028;SDS011;53934;52.142;11.738;2022-10-17T14:46:56;4.68;;;1.83;;
67028;SDS011;53934;52.142;11.738;2022-10-17T14:49:35;4.80;;;2.00;;
67028;SDS011;53934;52.142;11.738;2022-10-17T14:52:10;8.18;;;2.38;;
67028;SDS011;53934;52.142;11.738;2022-10-17T14:54:50;8.88;;;2.28;;
67028;SDS011;53934;52.142;11.738;2022-10-17T14:57:18;10.05;;;2.00;;
67028;SDS011;53934;52.142;11.738;2022-10-17T14:59:49;8.43;;;2.10;;
67028;SDS011;53934;52.142;11.738;2022-10-17T15:02:15;4.38;;;1.88;;
67028;SDS011;53934;52.142;11.738;2022-10-17T15:04:42;7.13;;;1.90;;
67028;SDS011;53934;52.142;11.738;2022-10-17T15:07:10;8.40;;;1.95;;
67028;SDS011;53934;52.142;11.738;2022-10-17T15:09:38;5.95;;;1.98;;
67028;SDS011;53934;52.142;11.738;2022-10-17T15:12:06;5.75;;;1.88;;
67028;SDS011;53934;52.142;11.738;2022-10-17T15:14:38;9.73;;;2.10;;
67028;SDS011;53934;52.142;11.738;2022-10-17T15:17:09;6.07;;;1.85;;
67028;SDS011;53934;52.142;11.738;2022-10-17T15:19:38;7.72;;;2.10;;
67028;SDS011;53934;52.142;11.738;2022-10-17T15:22:04;4.55;;;1.90;;